createdAt,value
2022-09-26T00:01:35.921Z,5.40
2022-09-26T00:04:31.783Z,8.28
2022-09-26T00:07:15.265Z,6.50
2022-09-26T00:10:02.540Z,7.45
2022-09-26T00:12:50.133Z,7.97
2022-09-26T00:15:37.494Z,8.05
2022-09-26T00:18:25.324Z,11.28
2022-09-26T00:21:15.172Z,6.05
2022-09-26T00:24:03.251Z,7.05
2022-09-26T00:26:50.835Z,7.75
2022-09-26T00:29:39.224Z,4.45
2022-09-26T00:32:26.619Z,5.22
2022-09-26T00:35:14.022Z,11.05
2022-09-26T00:38:01.583Z,5.25
2022-09-26T00:40:50.503Z,6.12
2022-09-26T00:43:41.152Z,9.53
2022-09-26T00:46:43.504Z,11.03
2022-09-26T00:49:36.946Z,10.25
2022-09-26T00:52:30.176Z,7.92
2022-09-26T00:55:21.070Z,8.73
2022-09-26T00:58:14.344Z,6.62
2022-09-26T01:01:02.191Z,9.18
2022-09-26T01:03:51.032Z,9.13
2022-09-26T01:06:38.618Z,10.10
2022-09-26T01:09:28.296Z,7.85
2022-09-26T01:12:17.558Z,14.18
2022-09-26T01:15:08.481Z,8.13
2022-09-26T01:17:55.940Z,8.30
2022-09-26T01:21:01.501Z,9.80
2022-09-26T01:24:16.095Z,7.67
2022-09-26T01:27:33.813Z,8.58
2022-09-26T01:33:28.399Z,11.70
2022-09-26T01:36:18.565Z,8.50
2022-09-26T01:39:33.557Z,10.32
2022-09-26T01:42:42.184Z,9.75
2022-09-26T01:45:32.426Z,10.03
2022-09-26T01:48:34.869Z,4.90
2022-09-26T01:51:40.348Z,8.58
2022-09-26T01:54:30.601Z,13.55
2022-09-26T01:57:20.969Z,8.55
2022-09-26T02:00:12.633Z,9.30
2022-09-26T02:03:00.863Z,9.95
2022-09-26T02:05:51.230Z,8.23
2022-09-26T02:08:41.956Z,10.60
2022-09-26T02:11:29.957Z,8.73
2022-09-26T02:14:28.795Z,11.60
2022-09-26T02:17:20.167Z,9.33
2022-09-26T02:20:14.879Z,9.45
2022-09-26T02:23:05.940Z,10.40
2022-09-26T02:25:53.914Z,6.47
2022-09-26T02:28:41.874Z,8.98
2022-09-26T02:31:32.433Z,11.38
2022-09-26T02:34:19.622Z,8.08
2022-09-26T02:37:07.532Z,10.85
2022-09-26T02:39:56.200Z,10.53
2022-09-26T02:42:52.779Z,11.85
2022-09-26T02:45:52.258Z,7.90
2022-09-26T02:49:00.439Z,5.60
2022-09-26T02:51:54.385Z,8.88
2022-09-26T02:54:47.709Z,8.43
2022-09-26T02:57:53.033Z,5.97
2022-09-26T03:00:55.752Z,9.08
2022-09-26T03:03:47.094Z,11.10
2022-09-26T03:06:37.469Z,7.62
2022-09-26T03:09:26.576Z,5.03
2022-09-26T03:12:16.785Z,9.80
2022-09-26T03:15:06.740Z,9.63
2022-09-26T03:17:57.517Z,8.55
2022-09-26T03:20:44.988Z,6.03
2022-09-26T03:23:32.262Z,9.35
2022-09-26T03:26:24.300Z,6.95
2022-09-26T03:29:11.582Z,9.50
2022-09-26T03:32:01.041Z,9.75
2022-09-26T03:34:48.572Z,4.72
2022-09-26T03:37:37.249Z,10.23
2022-09-26T03:40:24.650Z,5.35
2022-09-26T03:43:12.284Z,5.90
2022-09-26T03:46:05.399Z,8.15
2022-09-26T03:48:52.886Z,10.03
2022-09-26T03:51:40.121Z,10.30
2022-09-26T03:54:27.715Z,9.03
2022-09-26T03:57:16.588Z,4.45
2022-09-26T04:00:06.432Z,9.55
2022-09-26T04:02:53.703Z,6.75
2022-09-26T04:05:41.080Z,8.60
2022-09-26T04:08:28.695Z,4.50
2022-09-26T04:11:19.489Z,7.40
2022-09-26T04:14:07.314Z,11.48
2022-09-26T04:16:54.525Z,10.80
2022-09-26T04:19:42.033Z,13.40
2022-09-26T04:22:29.580Z,15.13
2022-09-26T04:25:17.157Z,12.93
2022-09-26T04:28:04.121Z,17.45
2022-09-26T04:30:51.703Z,16.42
2022-09-26T04:33:40.077Z,14.45
2022-09-26T04:36:27.284Z,13.10
2022-09-26T04:39:14.777Z,10.90
2022-09-26T04:42:03.057Z,11.75
2022-09-26T04:44:50.594Z,13.90
2022-09-26T04:47:37.888Z,7.58
2022-09-26T04:50:25.170Z,6.97
2022-09-26T04:53:12.461Z,7.50
2022-09-26T04:55:59.658Z,9.23
2022-09-26T04:58:47.736Z,12.78
2022-09-26T05:01:35.096Z,17.27
2022-09-26T05:04:27.328Z,9.20
2022-09-26T05:07:11.214Z,10.70
2022-09-26T05:09:58.663Z,7.85
2022-09-26T05:12:46.439Z,6.45
2022-09-26T05:15:35.382Z,12.03
2022-09-26T05:18:25.326Z,11.50
2022-09-26T05:21:12.285Z,15.18
2022-09-26T05:24:17.650Z,14.30
2022-09-26T05:27:07.797Z,11.38
2022-09-26T05:29:55.772Z,13.22
2022-09-26T05:32:44.950Z,13.15
2022-09-26T05:35:34.085Z,17.85
2022-09-26T05:38:21.629Z,22.95
2022-09-26T05:41:08.968Z,25.77
2022-09-26T05:43:56.466Z,25.05
2022-09-26T05:46:43.922Z,24.90
2022-09-26T05:49:32.789Z,22.60
2022-09-26T05:52:19.927Z,25.97
2022-09-26T05:55:07.341Z,19.98
2022-09-26T05:57:58.447Z,17.05
2022-09-26T06:00:47.574Z,20.62
2022-09-26T06:03:35.620Z,23.15
2022-09-26T06:06:23.036Z,24.15
2022-09-26T06:09:10.529Z,23.70
2022-09-26T06:11:57.878Z,14.28
2022-09-26T06:14:46.674Z,18.32
2022-09-26T06:17:34.253Z,15.63
2022-09-26T06:20:22.085Z,18.85
2022-09-26T06:23:09.483Z,19.50
2022-09-26T06:25:57.103Z,21.70
2022-09-26T06:28:44.747Z,25.90
2022-09-26T06:31:32.796Z,23.27
2022-09-26T06:34:20.065Z,25.55
2022-09-26T06:37:07.781Z,20.92
2022-09-26T06:39:59.220Z,18.98
2022-09-26T06:42:45.309Z,25.95
2022-09-26T06:45:32.596Z,21.55
2022-09-26T06:48:24.675Z,19.02
2022-09-26T06:51:13.966Z,18.85
2022-09-26T06:54:01.532Z,20.57
2022-09-26T06:56:48.975Z,22.27
2022-09-26T06:59:36.476Z,19.82
2022-09-26T07:02:25.277Z,20.05
2022-09-26T07:05:15.041Z,19.30
2022-09-26T07:08:03.118Z,18.23
2022-09-26T07:10:50.575Z,18.45
2022-09-26T07:13:38.988Z,19.07
2022-09-26T07:16:27.347Z,17.57
2022-09-26T07:19:16.023Z,16.17
2022-09-26T07:22:03.561Z,18.65
2022-09-26T07:24:51.103Z,18.77
2022-09-26T07:27:40.066Z,17.32
2022-09-26T07:30:28.307Z,18.85
2022-09-26T07:33:15.598Z,18.67
2022-09-26T07:36:05.432Z,16.93
2022-09-26T07:38:52.044Z,17.07
2022-09-26T07:41:39.200Z,19.85
2022-09-26T07:45:36.534Z,13.43
2022-09-26T07:47:34.375Z,16.00
2022-09-26T07:50:21.779Z,13.58
2022-09-26T07:53:09.544Z,13.98
2022-09-26T07:56:12.546Z,17.27
2022-09-26T07:59:01.405Z,13.78
2022-09-26T08:01:49.125Z,12.50
2022-09-26T08:04:36.509Z,13.08
2022-09-26T08:07:24.509Z,13.53
2022-09-26T08:10:21.123Z,14.68
2022-09-26T08:13:08.526Z,19.80
2022-09-26T08:15:56.508Z,16.80
2022-09-26T08:18:43.717Z,20.27
2022-09-26T08:21:31.278Z,15.83
2022-09-26T08:24:18.477Z,21.15
2022-09-26T08:27:06.221Z,18.05
2022-09-26T08:29:54.094Z,13.93
2022-09-26T08:32:41.426Z,16.00
2022-09-26T08:35:31.449Z,14.78
2022-09-26T08:38:18.833Z,24.07
2022-09-26T08:41:25.111Z,25.55
2022-09-26T08:44:32.078Z,13.13
2022-09-26T08:47:25.881Z,14.45
2022-09-26T08:50:42.229Z,13.68
2022-09-26T08:53:38.337Z,12.05
2022-09-26T08:56:31.679Z,13.00
2022-09-26T08:59:30.949Z,16.55
2022-09-26T09:02:30.205Z,13.83
2022-09-26T09:05:23.913Z,12.73
2022-09-26T09:08:18.455Z,11.53
2022-09-26T09:11:25.735Z,8.63
2022-09-26T09:14:25.304Z,11.05
2022-09-26T09:17:24.375Z,9.70
2022-09-26T09:20:19.701Z,12.30
2022-09-26T09:23:13.351Z,9.70
2022-09-26T09:29:19.561Z,10.72
2022-09-26T09:32:09.396Z,14.13
2022-09-26T09:34:57.815Z,7.62
2022-09-26T09:37:51.060Z,9.33
2022-09-26T09:41:09.001Z,14.05
2022-09-26T09:46:49.256Z,9.63
2022-09-26T09:49:36.607Z,6.80
2022-09-26T09:52:40.580Z,5.85
2022-09-26T09:55:49.960Z,7.72
2022-09-26T09:58:46.430Z,7.65
2022-09-26T10:01:37.363Z,9.13
2022-09-26T10:04:30.996Z,10.10
2022-09-26T10:07:18.272Z,8.30
2022-09-26T10:10:07.616Z,9.00
2022-09-26T10:12:56.906Z,7.03
2022-09-26T10:15:47.509Z,8.30
2022-09-26T10:18:36.542Z,3.40
2022-09-26T10:21:31.469Z,2.83
2022-09-26T10:24:24.662Z,4.80
2022-09-26T10:27:27.712Z,4.95
2022-09-26T10:30:28.088Z,5.50
2022-09-26T10:33:30.785Z,5.83
2022-09-26T10:36:24.215Z,4.60
2022-09-26T10:39:38.936Z,4.28
2022-09-26T10:42:29.968Z,2.55
2022-09-26T10:45:20.419Z,4.53
2022-09-26T10:48:08.004Z,4.15
2022-09-26T10:51:01.336Z,7.42
2022-09-26T10:53:53.074Z,4.45
2022-09-26T10:56:43.891Z,2.80
2022-09-26T10:59:34.816Z,3.40
2022-09-26T11:02:28.107Z,3.80
2022-09-26T11:05:35.495Z,5.45
2022-09-26T11:08:31.241Z,6.83
2022-09-26T11:11:22.467Z,3.02
2022-09-26T11:14:10.383Z,4.20
2022-09-26T11:16:59.625Z,6.15
2022-09-26T11:19:58.693Z,5.85
2022-09-26T11:22:47.625Z,3.65
2022-09-26T11:25:39.203Z,5.53
2022-09-26T11:28:31.209Z,6.95
2022-09-26T11:31:31.212Z,5.92
2022-09-26T11:34:26.841Z,4.62
2022-09-26T11:37:17.352Z,4.72
2022-09-26T11:40:11.066Z,9.85
2022-09-26T11:43:28.820Z,7.87
2022-09-26T11:46:31.481Z,5.20
2022-09-26T11:49:30.579Z,4.75
2022-09-26T11:52:52.880Z,4.30
2022-09-26T11:55:55.175Z,7.10
2022-09-26T11:58:46.581Z,7.47
2022-09-26T12:01:49.987Z,4.45
2022-09-26T12:05:01.600Z,9.10
2022-09-26T12:08:08.482Z,6.58
2022-09-26T12:11:05.399Z,4.67
2022-09-26T12:14:28.915Z,3.17
2022-09-26T12:17:37.543Z,5.15
2022-09-26T12:20:44.798Z,3.62
2022-09-26T12:23:48.316Z,5.97
2022-09-26T12:26:54.673Z,9.10
2022-09-26T12:29:55.267Z,5.00
2022-09-26T12:32:48.677Z,2.95
2022-09-26T12:35:43.927Z,2.98
2022-09-26T12:38:52.025Z,4.87
2022-09-26T12:42:03.314Z,3.00
2022-09-26T12:45:13.361Z,2.98
2022-09-26T12:48:09.375Z,2.15
2022-09-26T12:51:08.860Z,2.52
2022-09-26T12:54:33.069Z,4.62
2022-09-26T12:57:37.194Z,3.47
2022-09-26T13:00:25.269Z,3.15
2022-09-26T13:03:18.391Z,7.17
2022-09-26T13:06:27.347Z,3.90
2022-09-26T13:09:44.555Z,3.08
2022-09-26T13:12:47.004Z,5.70
2022-09-26T13:15:37.478Z,6.45
2022-09-26T13:18:35.703Z,5.33
2022-09-26T13:21:26.010Z,3.85
2022-09-26T13:24:29.855Z,4.10
2022-09-26T13:27:21.055Z,3.20
2022-09-26T13:30:15.582Z,6.33
2022-09-26T13:33:21.094Z,7.12
2022-09-26T13:36:10.588Z,3.05
2022-09-26T13:39:27.998Z,2.98
2022-09-26T13:42:18.174Z,8.13
2022-09-26T13:45:11.611Z,6.08
2022-09-26T13:48:08.256Z,6.00
2022-09-26T13:50:58.632Z,8.05
2022-09-26T13:53:50.126Z,5.90
2022-09-26T13:56:41.111Z,4.35
2022-09-26T13:59:34.644Z,3.87
2022-09-26T14:02:29.658Z,5.62
2022-09-26T14:05:44.958Z,3.80
2022-09-26T14:08:52.727Z,3.77
2022-09-26T14:14:41.716Z,3.77
2022-09-26T14:17:44.334Z,4.33
2022-09-26T14:20:34.762Z,2.95
2022-09-26T14:23:41.873Z,3.95
2022-09-26T14:26:31.345Z,5.60
2022-09-26T14:29:30.868Z,2.98
2022-09-26T14:32:21.260Z,5.17
2022-09-26T14:35:20.633Z,5.35
2022-09-26T14:38:16.989Z,4.12
2022-09-26T14:41:04.547Z,3.45
2022-09-26T14:43:52.911Z,5.25
2022-09-26T14:46:42.303Z,4.90
2022-09-26T14:49:30.061Z,3.20
2022-09-26T14:52:20.080Z,1.90
2022-09-26T14:55:08.883Z,2.95
2022-09-26T14:58:16.300Z,2.87
2022-09-26T15:01:06.147Z,3.10
2022-09-26T15:04:03.106Z,5.65
2022-09-26T15:06:53.197Z,2.62
2022-09-26T15:09:52.241Z,2.15
2022-09-26T15:12:46.002Z,3.42
2022-09-26T15:15:57.725Z,2.10
2022-09-26T15:18:51.015Z,5.95
2022-09-26T15:21:41.546Z,5.20
2022-09-26T15:24:35.395Z,6.45
2022-09-26T15:27:29.532Z,4.10
2022-09-26T15:30:29.139Z,4.53
2022-09-26T15:33:19.743Z,4.97
2022-09-26T15:36:07.125Z,3.92
2022-09-26T15:38:54.414Z,4.80
2022-09-26T15:42:02.780Z,2.33
2022-09-26T15:44:58.125Z,4.62
2022-09-26T15:47:46.012Z,3.15
2022-09-26T15:50:40.218Z,4.15
2022-09-26T15:53:45.862Z,2.15
2022-09-26T15:56:44.925Z,4.58
2022-09-26T15:59:40.007Z,1.85
2022-09-26T16:02:28.117Z,1.60
2022-09-26T16:05:16.305Z,5.25
2022-09-26T16:08:03.824Z,1.75
2022-09-26T16:11:00.382Z,4.08
2022-09-26T16:13:50.021Z,3.10
2022-09-26T16:16:37.561Z,3.33
2022-09-26T16:19:31.438Z,4.10
2022-09-26T16:22:37.006Z,2.15
2022-09-26T16:25:34.308Z,2.52
2022-09-26T16:31:16.120Z,3.17
2022-09-26T16:34:05.359Z,2.90
2022-09-26T16:36:52.772Z,5.53
2022-09-26T16:39:41.145Z,4.47
2022-09-26T16:42:32.812Z,5.22
2022-09-26T16:45:20.689Z,5.22
2022-09-26T16:48:09.416Z,4.15
2022-09-26T16:51:17.673Z,1.85
2022-09-26T16:54:11.746Z,3.98
2022-09-26T16:56:58.786Z,2.95
2022-09-26T16:59:46.530Z,3.65
2022-09-26T17:02:35.663Z,3.22
2022-09-26T17:05:23.288Z,4.53
2022-09-26T17:08:11.600Z,4.95
2022-09-26T17:11:04.442Z,4.25
2022-09-26T17:13:51.834Z,2.35
2022-09-26T17:16:38.897Z,2.87
2022-09-26T17:19:29.556Z,5.40
2022-09-26T17:22:19.269Z,3.33
2022-09-26T17:25:07.463Z,3.45
2022-09-26T17:27:59.073Z,3.85
2022-09-26T17:30:47.805Z,2.92
2022-09-26T17:33:39.149Z,3.02
2022-09-26T17:36:28.823Z,5.37
2022-09-26T17:39:23.184Z,3.90
2022-09-26T17:42:11.215Z,5.42
2022-09-26T17:44:58.271Z,2.47
2022-09-26T17:47:45.659Z,2.60
2022-09-26T17:50:35.412Z,2.70
2022-09-26T17:53:24.310Z,5.72
2022-09-26T17:56:12.661Z,4.60
2022-09-26T17:59:00.156Z,3.52
2022-09-26T18:01:49.745Z,2.20
2022-09-26T18:04:37.162Z,8.10
2022-09-26T18:07:24.476Z,3.55
2022-09-26T18:10:15.321Z,5.25
2022-09-26T18:13:12.108Z,5.22
2022-09-26T18:15:58.447Z,4.45
2022-09-26T18:18:45.880Z,7.83
2022-09-26T18:21:34.874Z,3.30
2022-09-26T18:24:24.065Z,4.60
2022-09-26T18:27:14.641Z,5.92
2022-09-26T18:30:01.836Z,4.87
2022-09-26T18:32:52.946Z,5.10
2022-09-26T18:35:41.866Z,2.47
2022-09-26T18:38:28.885Z,2.05
2022-09-26T18:41:18.252Z,2.92
2022-09-26T18:44:07.706Z,2.70
2022-09-26T18:46:59.516Z,2.02
2022-09-26T18:49:46.595Z,2.77
2022-09-26T18:52:34.689Z,4.53
2022-09-26T18:55:42.799Z,6.75
2022-09-26T18:58:32.171Z,3.65
2022-09-26T19:01:28.415Z,2.20
2022-09-26T19:04:21.766Z,2.98
2022-09-26T19:07:12.994Z,3.40
2022-09-26T19:10:01.033Z,3.00
2022-09-26T19:12:48.357Z,5.10
2022-09-26T19:15:35.873Z,5.90
2022-09-26T19:18:23.069Z,3.83
2022-09-26T19:21:32.233Z,4.47
2022-09-26T19:24:22.579Z,3.70
2022-09-26T19:27:16.211Z,5.65
2022-09-26T19:30:09.742Z,3.92
2022-09-26T19:32:58.046Z,4.67
2022-09-26T19:35:47.046Z,8.80
2022-09-26T19:38:34.568Z,3.60
2022-09-26T19:41:22.154Z,6.15
2022-09-26T19:44:09.784Z,5.97
2022-09-26T19:46:59.033Z,4.67
2022-09-26T19:49:51.850Z,4.15
2022-09-26T19:52:39.353Z,6.87
2022-09-26T19:55:29.391Z,6.78
2022-09-26T19:58:19.868Z,4.15
2022-09-26T20:01:19.335Z,5.87
2022-09-26T20:04:15.122Z,4.75
2022-09-26T20:07:02.513Z,4.55
2022-09-26T20:09:56.753Z,3.92
2022-09-26T20:12:44.907Z,2.83
2022-09-26T20:15:32.984Z,6.12
2022-09-26T20:18:23.204Z,5.70
2022-09-26T20:21:12.926Z,3.62
2022-09-26T20:24:01.013Z,7.37
2022-09-26T20:26:48.928Z,3.20
2022-09-26T20:29:38.055Z,4.20
2022-09-26T20:32:26.057Z,3.85
2022-09-26T20:35:16.492Z,6.42
2022-09-26T20:38:07.185Z,4.40
2022-09-26T20:41:03.509Z,4.87
2022-09-26T20:43:55.446Z,3.30
2022-09-26T20:46:45.694Z,3.72
2022-09-26T20:49:36.022Z,4.17
2022-09-26T20:52:27.697Z,4.33
2022-09-26T20:55:18.027Z,4.55
2022-09-26T20:58:07.394Z,3.95
2022-09-26T21:00:54.967Z,2.83
2022-09-26T21:03:45.366Z,4.95
2022-09-26T21:06:34.957Z,4.53
2022-09-26T21:09:22.127Z,3.22
2022-09-26T21:12:14.909Z,2.92
2022-09-26T21:15:02.192Z,4.22
2022-09-26T21:17:50.955Z,5.87
2022-09-26T21:20:38.333Z,4.70
2022-09-26T21:23:25.684Z,2.40
2022-09-26T21:26:16.145Z,2.58
2022-09-26T21:29:06.078Z,2.40
2022-09-26T21:31:56.074Z,3.15
2022-09-26T21:34:45.096Z,3.37
2022-09-26T21:37:32.929Z,6.85
2022-09-26T21:40:22.138Z,2.80
2022-09-26T21:43:12.742Z,5.50
2022-09-26T21:46:00.139Z,2.45
2022-09-26T21:48:47.431Z,3.52
2022-09-26T21:51:36.287Z,3.35
2022-09-26T21:54:30.107Z,4.70
2022-09-26T21:57:26.044Z,2.12
2022-09-26T22:00:15.201Z,1.77
2022-09-26T22:03:02.632Z,1.82
2022-09-26T22:05:50.135Z,4.33
2022-09-26T22:08:39.232Z,3.33
2022-09-26T22:11:26.933Z,4.17
2022-09-26T22:14:14.253Z,3.45
2022-09-26T22:17:01.635Z,3.45
2022-09-26T22:19:50.977Z,4.47
2022-09-26T22:22:38.722Z,4.17
2022-09-26T22:25:25.959Z,1.98
2022-09-26T22:28:13.180Z,3.58
2022-09-26T22:31:05.020Z,2.75
2022-09-26T22:33:52.275Z,2.30
2022-09-26T22:36:39.636Z,3.87
2022-09-26T22:39:26.882Z,2.45
2022-09-26T22:42:14.547Z,1.70
2022-09-26T22:45:02.066Z,1.50
2022-09-26T22:47:49.606Z,2.83
2022-09-26T22:50:37.521Z,1.98
2022-09-26T22:53:25.064Z,1.57
2022-09-26T22:56:14.883Z,2.10
2022-09-26T22:59:03.718Z,2.02
2022-09-26T23:01:51.509Z,2.95
2022-09-26T23:04:47.950Z,1.40
2022-09-26T23:07:35.128Z,3.58
2022-09-26T23:10:22.646Z,4.72
2022-09-26T23:13:09.844Z,2.08
2022-09-26T23:15:57.122Z,2.67
2022-09-26T23:18:45.169Z,3.45
2022-09-26T23:21:32.472Z,3.27
2022-09-26T23:24:19.685Z,2.47
2022-09-26T23:27:07.166Z,1.30
2022-09-26T23:29:55.237Z,3.35
2022-09-26T23:32:42.600Z,2.00
2022-09-26T23:35:29.803Z,1.10
2022-09-26T23:38:17.332Z,2.42
2022-09-26T23:41:07.906Z,1.95
2022-09-26T23:43:55.013Z,1.47
2022-09-26T23:46:42.271Z,2.58
2022-09-26T23:49:29.944Z,3.72
2022-09-26T23:52:17.549Z,1.45
2022-09-26T23:55:05.032Z,2.00
2022-09-26T23:57:52.592Z,3.37
